Time;durP1;ratioP1;P1;durP2;ratioP2;P2;SDS_P1;SDS_P2;PMS_P1;PMS_P2;Temp;Humidity;BMP_temperature;BMP_pressure;BME280_temperature;BME280_humidity;BME280_pressure;Samples;Min_cycle;Max_cycle;Signal;HPM_P1;HPM_P2
2021/06/04 00:01:22;;;;;;;9.53;6.00;;;15.60;99.90;;;;;;5034872;28;20539;-54
2021/06/04 00:03:49;;;;;;;6.77;5.20;;;15.60;99.90;;;;;;5037277;28;20542;-54
2021/06/04 00:06:15;;;;;;;11.40;5.43;;;15.60;99.90;;;;;;5033613;28;20445;-54
2021/06/04 00:08:43;;;;;;;7.00;5.10;;;15.50;99.90;;;;;;5038221;28;20491;-55
2021/06/04 00:11:32;;;;;;;8.70;5.00;;;15.50;99.90;;;;;;5028273;28;20187;-54
2021/06/04 00:14:07;;;;;;;6.00;4.97;;;15.40;99.90;;;;;;5027189;28;20449;-54
2021/06/04 00:16:43;;;;;;;8.63;5.20;;;15.40;99.90;;;;;;5038877;28;20492;-54
2021/06/04 00:19:13;;;;;;;8.77;5.73;;;15.40;99.90;;;;;;5029932;28;20941;-54
2021/06/04 00:21:50;;;;;;;7.67;5.40;;;15.40;99.90;;;;;;5028557;28;20426;-56
2021/06/04 00:24:17;;;;;;;7.23;5.80;;;15.30;99.90;;;;;;5025868;28;20887;-54
2021/06/04 00:26:46;;;;;;;11.93;5.47;;;15.30;99.90;;;;;;5030483;28;20456;-54
2021/06/04 00:29:12;;;;;;;6.93;5.60;;;15.30;99.90;;;;;;5032126;28;20453;-54
2021/06/04 00:31:38;;;;;;;8.53;5.90;;;15.20;99.90;;;;;;5030545;28;20426;-54
2021/06/04 00:34:06;;;;;;;7.33;5.27;;;15.20;99.90;;;;;;5030432;28;20589;-54
2021/06/04 00:36:35;;;;;;;6.10;5.43;;;15.10;99.90;;;;;;5027428;28;20473;-54
2021/06/04 00:39:05;;;;;;;7.60;5.53;;;15.10;99.90;;;;;;5026247;28;20469;-55
2021/06/04 00:41:47;;;;;;;11.90;5.53;;;15.10;99.90;;;;;;5031260;28;21807;-54
2021/06/04 00:44:13;;;;;;;5.90;5.30;;;15.00;99.90;;;;;;5028821;28;20476;-58
2021/06/04 00:46:39;;;;;;;8.30;5.23;;;15.00;99.90;;;;;;5030664;28;20426;-54
2021/06/04 00:49:06;;;;;;;7.20;5.10;;;15.00;99.90;;;;;;5015724;28;20435;-54
2021/06/04 00:51:58;;;;;;;6.17;5.13;;;15.00;99.90;;;;;;5009040;28;21201;-53
2021/06/04 00:54:24;;;;;;;10.50;5.87;;;14.90;99.90;;;;;;5016061;28;20434;-54
2021/06/04 00:56:51;;;;;;;7.30;6.20;;;14.90;99.90;;;;;;5000913;28;20437;-53
2021/06/04 00:59:29;;;;;;;7.20;5.47;;;14.80;99.90;;;;;;5027645;28;20942;-55
2021/06/04 01:01:55;;;;;;;6.50;5.90;;;14.80;99.90;;;;;;5030592;28;20421;-54
2021/06/04 01:04:24;;;;;;;7.50;5.70;;;14.80;99.90;;;;;;5029386;28;20898;-54
2021/06/04 01:07:08;;;;;;;9.90;5.90;;;14.80;99.90;;;;;;5026078;28;20418;-53
2021/06/04 01:10:05;;;;;;;11.40;5.40;;;14.80;99.90;;;;;;5029403;28;20842;-53
2021/06/04 01:12:49;;;;;;;6.77;4.90;;;14.80;99.90;;;;;;5033010;28;20422;-53
2021/06/04 01:15:24;;;;;;;6.80;5.93;;;14.80;99.90;;;;;;5010354;28;20445;-54
2021/06/04 01:18:04;;;;;;;6.63;5.37;;;14.80;99.90;;;;;;5039427;28;20538;-54
2021/06/04 01:20:35;;;;;;;10.37;5.33;;;14.80;99.90;;;;;;5029041;28;20417;-55
2021/06/04 01:23:15;;;;;;;10.70;5.40;;;14.70;99.90;;;;;;5031846;28;20434;-55
2021/06/04 01:26:02;;;;;;;7.10;5.67;;;14.70;99.90;;;;;;5021482;28;20445;-54
2021/06/04 01:28:34;;;;;;;6.40;5.80;;;14.70;99.90;;;;;;5033775;28;20465;-54
2021/06/04 01:31:19;;;;;;;7.43;5.30;;;14.60;99.90;;;;;;5032352;28;20926;-54
2021/06/04 01:33:49;;;;;;;5.27;4.77;;;14.60;99.90;;;;;;5037334;28;20428;-54
2021/06/04 01:36:21;;;;;;;6.97;5.83;;;14.50;99.90;;;;;;5034908;28;20948;-55
2021/06/04 01:38:50;;;;;;;6.83;6.00;;;14.50;99.90;;;;;;5037650;28;20985;-54
2021/06/04 01:41:20;;;;;;;6.03;5.43;;;14.50;99.90;;;;;;5014824;28;20432;-55
2021/06/04 01:43:49;;;;;;;7.47;5.40;;;14.40;99.90;;;;;;5040516;28;20457;-53
2021/06/04 01:46:25;;;;;;;8.20;5.00;;;14.40;99.90;;;;;;5034380;28;20449;-54
2021/06/04 01:48:52;;;;;;;10.20;5.10;;;14.40;99.90;;;;;;5028863;28;20433;-53
2021/06/04 01:51:37;;;;;;;8.50;5.80;;;14.40;99.90;;;;;;5032964;28;20430;-53
2021/06/04 01:54:14;;;;;;;5.37;4.87;;;14.30;99.90;;;;;;5032572;28;21062;-54
2021/06/04 01:56:51;;;;;;;7.53;5.43;;;14.30;99.90;;;;;;5031103;28;20437;-54
2021/06/04 01:59:31;;;;;;;7.90;5.33;;;14.30;99.90;;;;;;5031471;28;20532;-54
2021/06/04 02:01:57;;;;;;;6.37;5.73;;;14.30;99.90;;;;;;5031360;28;20432;-54
2021/06/04 02:04:31;;;;;;;6.83;5.97;;;14.30;99.90;;;;;;5037108;28;20461;-54
2021/06/04 02:06:58;;;;;;;8.70;5.67;;;14.30;99.90;;;;;;5031445;28;20689;-54
2021/06/04 02:09:27;;;;;;;9.10;6.07;;;14.30;99.90;;;;;;5030879;28;20769;-53
2021/06/04 02:11:53;;;;;;;7.27;5.50;;;14.30;99.90;;;;;;5035643;28;20437;-53
2021/06/04 02:14:24;;;;;;;5.90;5.23;;;14.30;99.90;;;;;;5034083;28;20438;-54
2021/06/04 02:17:11;;;;;;;5.80;5.10;;;14.20;99.90;;;;;;5014488;28;20972;-54
2021/06/04 02:20:15;;;;;;;7.30;5.10;;;14.20;99.90;;;;;;5031983;28;20805;-54
2021/06/04 02:22:52;;;;;;;14.70;5.83;;;14.20;99.90;;;;;;5030149;28;20437;-54
2021/06/04 02:25:32;;;;;;;8.23;5.47;;;14.10;99.90;;;;;;5012047;28;20822;-54
2021/06/04 02:28:03;;;;;;;6.70;5.47;;;14.10;99.90;;;;;;5037921;28;22251;-53
2021/06/04 02:30:37;;;;;;;7.17;5.60;;;14.10;99.90;;;;;;5035943;28;20910;-53
2021/06/04 02:33:16;;;;;;;6.47;5.03;;;14.00;99.90;;;;;;5029936;28;20538;-54
2021/06/04 02:36:14;;;;;;;6.03;5.20;;;14.00;99.90;;;;;;5032575;28;20459;-54
2021/06/04 02:38:54;;;;;;;7.40;5.77;;;13.90;99.90;;;;;;5011860;28;20514;-53
2021/06/04 02:41:27;;;;;;;7.53;5.73;;;13.90;99.90;;;;;;5029533;28;20444;-53
2021/06/04 02:43:57;;;;;;;6.00;5.13;;;13.80;99.90;;;;;;5032797;28;20467;-55
2021/06/04 02:46:36;;;;;;;5.40;4.90;;;13.80;99.90;;;;;;5034923;28;20521;-54
2021/06/04 02:49:07;;;;;;;6.23;5.60;;;13.80;99.90;;;;;;5041078;28;20444;-55
2021/06/04 02:51:59;;;;;;;6.00;5.23;;;13.80;99.90;;;;;;5031407;28;20507;-55
2021/06/04 02:54:28;;;;;;;5.57;4.80;;;13.70;99.90;;;;;;5021046;28;20446;-54
2021/06/04 02:56:58;;;;;;;8.50;5.43;;;13.70;99.90;;;;;;5052374;23;20504;-58
2021/06/04 02:59:30;;;;;;;6.57;5.10;;;13.70;99.90;;;;;;5036734;28;20922;-60
2021/06/04 03:02:03;;;;;;;14.30;5.00;;;13.60;99.90;;;;;;5022937;28;20491;-57
2021/06/04 03:04:32;;;;;;;6.23;5.37;;;13.60;99.90;;;;;;5041868;28;20477;-60
2021/06/04 03:07:03;;;;;;;5.97;5.27;;;13.60;99.90;;;;;;5016171;28;20512;-59
2021/06/04 03:09:40;;;;;;;8.73;5.80;;;13.60;99.90;;;;;;5035966;28;20417;-60
2021/06/04 03:12:17;;;;;;;10.57;6.30;;;13.50;99.90;;;;;;5015786;28;20520;-59
2021/06/04 03:14:47;;;;;;;17.40;6.63;;;13.50;99.90;;;;;;5039120;28;20525;-59
2021/06/04 03:17:14;;;;;;;8.50;5.80;;;13.50;99.90;;;;;;5039805;28;20456;-59
2021/06/04 03:19:40;;;;;;;7.13;5.47;;;13.50;99.90;;;;;;5031566;28;20828;-59
2021/06/04 03:22:13;;;;;;;8.50;5.63;;;13.40;99.90;;;;;;5041694;28;20433;-60
2021/06/04 03:24:41;;;;;;;8.47;5.70;;;13.40;99.90;;;;;;5040262;28;20466;-57
2021/06/04 03:27:09;;;;;;;8.00;6.00;;;13.40;99.90;;;;;;5040139;28;21135;-59
2021/06/04 03:29:35;;;;;;;7.23;6.00;;;13.40;99.90;;;;;;5007469;28;20438;-60
2021/06/04 03:32:06;;;;;;;5.93;5.00;;;13.40;99.90;;;;;;5038168;28;20425;-59
2021/06/04 03:34:32;;;;;;;7.23;5.53;;;13.40;99.90;;;;;;5036691;28;20430;-60
2021/06/04 03:37:00;;;;;;;6.00;5.40;;;13.40;99.90;;;;;;5034535;28;20979;-59
2021/06/04 03:39:30;;;;;;;7.30;5.57;;;13.40;99.90;;;;;;5033450;28;20978;-60
2021/06/04 03:41:57;;;;;;;5.73;5.00;;;13.30;99.90;;;;;;5028578;28;20443;-60
2021/06/04 03:44:26;;;;;;;7.50;6.50;;;13.30;99.90;;;;;;5033014;28;20454;-60
2021/06/04 03:46:52;;;;;;;7.00;4.77;;;13.30;99.90;;;;;;5032686;28;20445;-60
2021/06/04 03:49:21;;;;;;;5.80;5.20;;;13.30;99.90;;;;;;5038577;28;20427;-61
2021/06/04 03:51:48;;;;;;;5.73;5.10;;;13.30;99.90;;;;;;5030793;28;20930;-59
2021/06/04 03:54:21;;;;;;;7.83;5.93;;;13.30;99.90;;;;;;5018851;28;20794;-60
2021/06/04 03:56:47;;;;;;;7.90;6.03;;;13.30;99.90;;;;;;5012716;28;20469;-58
2021/06/04 03:59:13;;;;;;;5.13;4.63;;;13.30;99.90;;;;;;5029646;28;20469;-60
2021/06/04 04:01:47;;;;;;;10.47;6.10;;;13.30;99.90;;;;;;5034351;28;20457;-60
2021/06/04 04:04:13;;;;;;;6.93;5.40;;;13.30;99.90;;;;;;5036762;28;20615;-60
2021/06/04 04:06:39;;;;;;;6.67;5.20;;;13.30;99.90;;;;;;5033889;28;20446;-60
2021/06/04 04:09:07;;;;;;;6.80;5.80;;;13.30;99.90;;;;;;5018606;28;20449;-61
2021/06/04 04:11:33;;;;;;;7.77;5.40;;;13.30;99.90;;;;;;5037656;28;20172;-60
2021/06/04 04:13:58;;;;;;;6.13;4.90;;;13.40;99.90;;;;;;5034325;28;20458;-61
2021/06/04 04:16:24;;;;;;;6.20;5.37;;;13.40;99.90;;;;;;5030581;28;20226;-59
2021/06/04 04:18:50;;;;;;;8.63;6.10;;;13.50;99.90;;;;;;5036260;28;20179;-61
2021/06/04 04:21:16;;;;;;;6.00;5.40;;;13.50;99.90;;;;;;5018080;28;20464;-61
2021/06/04 04:23:51;;;;;;;6.10;5.27;;;13.60;99.90;;;;;;5018008;28;20203;-59
2021/06/04 04:26:21;;;;;;;7.00;5.67;;;13.60;99.90;;;;;;5031961;28;20195;-59
2021/06/04 04:28:49;;;;;;;5.30;4.80;;;13.70;99.90;;;;;;5039486;28;20418;-60
2021/06/04 04:31:19;;;;;;;6.07;4.90;;;13.80;99.90;;;;;;5037375;28;21171;-60
2021/06/04 04:33:45;;;;;;;5.80;5.20;;;13.90;99.90;;;;;;5037356;28;20434;-61
2021/06/04 04:36:13;;;;;;;6.93;5.47;;;14.00;99.90;;;;;;5041155;28;20457;-61
2021/06/04 04:38:39;;;;;;;5.67;4.90;;;14.00;99.90;;;;;;5029832;28;21102;-60
2021/06/04 04:41:05;;;;;;;6.83;4.80;;;14.00;99.90;;;;;;5020540;28;20496;-60
2021/06/04 04:43:38;;;;;;;4.90;4.40;;;14.10;99.90;;;;;;5030837;28;20196;-60
2021/06/04 04:46:06;;;;;;;5.67;4.90;;;14.00;99.90;;;;;;5031188;28;20438;-60
2021/06/04 04:48:32;;;;;;;6.60;5.57;;;14.00;99.90;;;;;;5032161;28;20437;-60
2021/06/04 04:50:58;;;;;;;8.00;5.60;;;14.00;99.90;;;;;;5030986;28;20421;-59
2021/06/04 04:53:25;;;;;;;7.93;6.07;;;14.00;99.90;;;;;;5031524;28;20437;-60
2021/06/04 04:55:51;;;;;;;7.20;5.50;;;14.10;99.90;;;;;;5013909;28;20206;-60
2021/06/04 04:58:18;;;;;;;5.70;5.10;;;14.10;99.90;;;;;;5033727;28;20436;-58
2021/06/04 05:00:44;;;;;;;7.30;5.83;;;14.10;99.90;;;;;;5033921;28;20530;-60
2021/06/04 05:03:12;;;;;;;6.00;5.30;;;14.10;99.90;;;;;;5032515;28;20433;-58
2021/06/04 05:05:39;;;;;;;6.93;5.63;;;14.20;99.90;;;;;;5014802;28;20457;-58
2021/06/04 05:08:06;;;;;;;5.57;5.07;;;14.30;99.90;;;;;;5024901;28;20436;-60
2021/06/04 05:10:33;;;;;;;7.33;4.77;;;14.40;99.90;;;;;;5030244;28;20433;-59
2021/06/04 05:12:59;;;;;;;6.07;5.43;;;14.60;99.90;;;;;;5016234;28;20457;-61
2021/06/04 05:15:30;;;;;;;5.53;5.03;;;14.60;99.90;;;;;;5028609;28;20529;-59
2021/06/04 05:17:56;;;;;;;6.00;4.97;;;14.80;99.90;;;;;;5030204;28;21095;-58
2021/06/04 05:20:23;;;;;;;6.37;5.40;;;15.00;99.90;;;;;;5030886;28;20813;-59
2021/06/04 05:22:49;;;;;;;6.10;4.67;;;15.10;99.90;;;;;;5032249;28;21003;-59
2021/06/04 05:25:20;;;;;;;7.50;5.20;;;15.20;99.90;;;;;;5033436;28;21085;-56
2021/06/04 05:27:46;;;;;;;9.17;5.40;;;15.40;99.90;;;;;;5030708;28;20442;-56
2021/06/04 05:30:17;;;;;;;6.93;5.10;;;15.40;99.90;;;;;;5027334;28;21539;-57
2021/06/04 05:32:43;;;;;;;6.33;4.77;;;15.50;99.90;;;;;;5025611;28;20431;-59
2021/06/04 05:35:10;;;;;;;6.13;4.83;;;15.60;99.90;;;;;;5028317;28;20786;-59
2021/06/04 05:37:37;;;;;;;5.23;4.70;;;15.70;99.90;;;;;;5032269;28;20296;-59
2021/06/04 05:40:12;;;;;;;10.13;5.40;;;15.70;99.90;;;;;;5021060;28;20429;-58
2021/06/04 05:42:38;;;;;;;5.37;4.90;;;15.80;99.90;;;;;;5031000;28;21057;-59
2021/06/04 05:45:06;;;;;;;8.80;5.57;;;15.90;99.90;;;;;;5033692;28;20455;-61
2021/06/04 05:47:32;;;;;;;6.53;5.13;;;15.90;99.90;;;;;;5029118;28;20961;-60
2021/06/04 05:49:57;;;;;;;6.73;4.73;;;16.00;99.90;;;;;;5033015;28;20429;-59
2021/06/04 05:52:23;;;;;;;8.10;5.20;;;16.00;99.90;;;;;;5033632;28;20179;-59
2021/06/04 05:54:49;;;;;;;8.63;5.00;;;16.10;99.90;;;;;;5043670;28;20180;-60
2021/06/04 05:57:16;;;;;;;9.13;5.77;;;16.10;99.90;;;;;;5023497;28;20514;-58
2021/06/04 05:59:43;;;;;;;14.50;6.87;;;16.10;99.90;;;;;;5020949;28;20226;-60
2021/06/04 06:02:09;;;;;;;9.00;5.30;;;16.10;99.90;;;;;;5026596;28;20438;-61
2021/06/04 06:04:35;;;;;;;5.00;4.50;;;16.20;99.90;;;;;;5027862;28;20479;-60
2021/06/04 06:07:01;;;;;;;9.20;6.17;;;16.30;99.90;;;;;;5027456;28;20707;-60
2021/06/04 06:09:26;;;;;;;4.80;4.37;;;16.30;99.90;;;;;;5027840;28;20818;-59
2021/06/04 06:11:52;;;;;;;6.57;5.10;;;16.40;99.90;;;;;;5028003;28;20176;-60
2021/06/04 06:14:18;;;;;;;6.50;4.77;;;16.50;99.90;;;;;;5031268;28;20187;-61
2021/06/04 06:16:45;;;;;;;7.53;5.03;;;16.50;99.90;;;;;;5012058;28;20256;-60
2021/06/04 06:19:14;;;;;;;12.70;5.27;;;16.50;99.90;;;;;;5031098;28;20429;-61
2021/06/04 06:21:44;;;;;;;7.10;5.13;;;16.60;99.90;;;;;;5030054;28;20464;-61
2021/06/04 06:24:10;;;;;;;7.03;4.60;;;16.80;99.90;;;;;;5032968;28;20500;-60
2021/06/04 06:26:36;;;;;;;7.37;4.90;;;16.90;99.90;;;;;;5033093;28;20449;-60
2021/06/04 06:29:06;;;;;;;6.80;5.50;;;17.00;99.90;;;;;;5041142;28;20508;-59
2021/06/04 06:31:36;;;;;;;12.10;6.20;;;17.10;99.90;;;;;;5033069;28;20455;-59
2021/06/04 06:34:03;;;;;;;12.90;4.80;;;17.30;99.90;;;;;;5035030;28;20433;-59
2021/06/04 06:36:32;;;;;;;7.83;4.47;;;17.30;99.90;;;;;;5034801;28;20520;-61
2021/06/04 06:39:05;;;;;;;10.80;5.47;;;17.40;99.90;;;;;;5030135;28;20968;-58
2021/06/04 06:41:31;;;;;;;17.23;5.70;;;17.40;99.90;;;;;;5013454;28;20440;-60
2021/06/04 06:43:57;;;;;;;9.90;5.23;;;17.50;99.90;;;;;;5030075;28;20452;-59
2021/06/04 06:46:25;;;;;;;7.53;5.40;;;17.50;99.90;;;;;;5027814;28;20199;-61
2021/06/04 06:48:51;;;;;;;7.03;5.30;;;17.50;99.90;;;;;;5012143;28;20180;-59
2021/06/04 06:51:17;;;;;;;8.10;5.30;;;17.50;99.90;;;;;;5031447;28;20456;-62
2021/06/04 06:53:43;;;;;;;7.90;5.03;;;17.50;99.90;;;;;;5027988;28;20427;-61
2021/06/04 06:56:11;;;;;;;9.50;4.97;;;17.50;99.90;;;;;;5031640;28;20543;-59
2021/06/04 06:58:38;;;;;;;9.33;6.07;;;17.50;99.90;;;;;;5032879;28;20479;-58
2021/06/04 07:01:06;;;;;;;6.03;5.27;;;17.40;99.90;;;;;;5029591;28;22163;-59
2021/06/04 07:03:35;;;;;;;8.23;4.93;;;17.40;99.90;;;;;;5034482;28;20457;-62
2021/06/04 07:06:05;;;;;;;6.33;5.07;;;17.40;99.90;;;;;;5024726;28;20853;-61
2021/06/04 07:08:31;;;;;;;7.47;4.93;;;17.30;99.90;;;;;;5032491;28;20446;-61
2021/06/04 07:10:57;;;;;;;11.00;5.27;;;17.30;99.90;;;;;;5037687;28;20425;-61
2021/06/04 07:13:28;;;;;;;6.90;4.80;;;17.30;99.90;;;;;;5027597;28;20274;-61
2021/06/04 07:16:04;;;;;;;6.40;5.70;;;17.30;99.90;;;;;;5017328;28;20906;-61
2021/06/04 07:18:30;;;;;;;6.77;5.27;;;17.30;99.90;;;;;;5023890;28;20441;-59
2021/06/04 07:20:57;;;;;;;9.23;5.80;;;17.30;99.90;;;;;;5031834;28;20434;-58
2021/06/04 07:23:25;;;;;;;11.83;5.60;;;17.30;99.90;;;;;;5032758;28;20599;-62
2021/06/04 07:25:51;;;;;;;12.13;5.83;;;17.30;99.90;;;;;;5030668;28;20468;-59
2021/06/04 07:28:19;;;;;;;7.80;5.60;;;17.30;99.90;;;;;;5028221;28;20961;-58
2021/06/04 07:30:47;;;;;;;13.67;6.03;;;17.30;99.90;;;;;;5027641;28;20171;-61
2021/06/04 07:33:25;;;;;;;7.80;5.37;;;17.40;99.90;;;;;;5013007;28;20426;-59
2021/06/04 07:35:52;;;;;;;7.60;5.40;;;17.40;99.90;;;;;;5028233;28;20464;-60
2021/06/04 07:38:18;;;;;;;10.00;5.57;;;17.40;99.90;;;;;;5025463;28;20484;-62
2021/06/04 07:40:44;;;;;;;9.27;5.93;;;17.50;99.90;;;;;;5041371;28;20437;-60
2021/06/04 07:43:15;;;;;;;12.03;6.17;;;17.50;99.90;;;;;;5040433;28;20434;-62
2021/06/04 07:45:42;;;;;;;9.87;5.50;;;17.60;99.90;;;;;;5038512;28;20476;-61
2021/06/04 07:48:12;;;;;;;8.10;5.80;;;17.60;99.90;;;;;;5041214;28;20483;-60
2021/06/04 07:50:40;;;;;;;6.83;5.90;;;17.60;99.90;;;;;;5042876;28;20997;-60
2021/06/04 07:53:05;;;;;;;6.57;5.83;;;17.70;99.90;;;;;;5037667;28;20423;-60
2021/06/04 07:55:31;;;;;;;7.23;5.13;;;17.70;99.90;;;;;;5035011;28;20489;-59
2021/06/04 07:57:57;;;;;;;7.80;6.20;;;17.70;99.90;;;;;;5029008;28;20198;-59
2021/06/04 08:00:27;;;;;;;8.63;6.47;;;17.80;99.90;;;;;;5027307;28;20266;-60
2021/06/04 08:02:54;;;;;;;10.53;6.50;;;17.80;99.90;;;;;;5028026;28;20474;-59
2021/06/04 08:05:20;;;;;;;14.43;6.57;;;17.80;99.90;;;;;;5029862;28;20465;-59
2021/06/04 08:07:46;;;;;;;8.07;6.13;;;17.80;99.90;;;;;;5008793;28;20443;-60
2021/06/04 08:10:14;;;;;;;10.40;6.40;;;17.90;99.90;;;;;;5031017;28;20233;-61
2021/06/04 08:12:42;;;;;;;8.83;5.57;;;17.90;99.90;;;;;;5025610;28;20851;-59
2021/06/04 08:15:13;;;;;;;10.40;5.43;;;17.90;99.90;;;;;;5023622;28;20481;-60
2021/06/04 08:17:39;;;;;;;12.20;7.03;;;17.90;99.90;;;;;;5030848;28;20429;-59
2021/06/04 08:20:08;;;;;;;8.37;5.50;;;17.90;99.90;;;;;;5028347;28;20453;-59
2021/06/04 08:22:33;;;;;;;10.43;5.40;;;17.90;99.90;;;;;;5011691;28;20445;-59
2021/06/04 08:24:59;;;;;;;7.27;5.30;;;17.90;99.90;;;;;;5031513;28;20465;-58
2021/06/04 08:27:28;;;;;;;9.17;5.60;;;17.90;99.90;;;;;;5029382;28;20178;-60
2021/06/04 08:29:54;;;;;;;7.17;5.30;;;17.90;99.90;;;;;;5017981;28;20346;-61
2021/06/04 08:32:22;;;;;;;15.53;5.90;;;18.00;99.90;;;;;;5029112;28;20892;-59
2021/06/04 08:34:48;;;;;;;11.13;5.70;;;18.00;99.90;;;;;;5027607;28;20528;-59
2021/06/04 08:37:14;;;;;;;7.33;5.60;;;18.00;99.90;;;;;;5027219;28;20950;-58
2021/06/04 08:39:43;;;;;;;8.90;5.57;;;18.00;99.90;;;;;;5030742;28;20679;-59
2021/06/04 08:42:28;;;;;;;11.43;5.20;;;18.10;99.90;;;;;;5000516;28;20207;-59
2021/06/04 08:45:02;;;;;;;6.80;5.37;;;18.10;99.90;;;;;;5027249;28;20457;-59
2021/06/04 08:47:34;;;;;;;7.67;4.80;;;18.20;99.90;;;;;;5030065;28;20461;-59
2021/06/04 08:50:09;;;;;;;7.10;5.00;;;18.20;99.90;;;;;;5029071;28;20606;-60
2021/06/04 08:53:01;;;;;;;7.90;4.90;;;18.20;99.90;;;;;;5027276;28;20727;-61
2021/06/04 08:58:10;;;;;;;5.80;4.30;;;18.30;99.90;;;;;;5002388;28;20490;-54
2021/06/04 09:00:43;;;;;;;7.67;4.40;;;18.30;99.90;;;;;;5007819;28;20443;-54
2021/06/04 09:03:34;;;;;;;8.93;4.07;;;18.40;99.90;;;;;;5005558;28;20422;-54
2021/06/04 09:06:04;;;;;;;7.13;4.40;;;18.40;99.90;;;;;;5006909;28;20528;-53
2021/06/04 09:08:34;;;;;;;9.57;4.47;;;18.50;99.90;;;;;;5027624;28;20747;-53
2021/06/04 09:11:05;;;;;;;7.10;4.87;;;18.60;99.90;;;;;;5029364;28;20430;-55
2021/06/04 09:13:34;;;;;;;4.50;3.90;;;18.60;99.90;;;;;;5028184;28;20426;-53
2021/06/04 09:16:29;;;;;;;7.40;4.80;;;18.70;99.90;;;;;;5028276;28;20486;-53
2021/06/04 09:19:19;;;;;;;6.60;4.50;;;18.80;99.90;;;;;;4990541;28;20916;-54
2021/06/04 09:21:46;;;;;;;6.27;4.17;;;18.80;99.90;;;;;;5030555;28;20978;-54
2021/06/04 09:24:30;;;;;;;4.40;4.00;;;18.90;99.90;;;;;;5015545;28;20514;-53
2021/06/04 09:26:57;;;;;;;10.40;4.60;;;19.00;99.90;;;;;;5033195;28;20624;-53
2021/06/04 09:29:29;;;;;;;11.63;4.53;;;19.10;99.90;;;;;;5031848;28;20425;-52
2021/06/04 09:32:18;;;;;;;5.93;4.57;;;19.10;99.90;;;;;;5011496;28;20453;-54
2021/06/04 09:34:43;;;;;;;7.70;4.20;;;19.10;99.90;;;;;;5028951;28;20461;-54
2021/06/04 09:37:29;;;;;;;5.80;4.40;;;19.20;99.90;;;;;;5031559;28;21025;-54
2021/06/04 09:40:10;;;;;;;6.93;4.50;;;19.30;99.90;;;;;;5017556;28;20686;-54
2021/06/04 09:42:54;;;;;;;6.40;4.43;;;19.30;99.90;;;;;;5038804;28;20433;-51
2021/06/04 09:45:43;;;;;;;5.97;4.60;;;19.40;99.90;;;;;;5033240;28;20446;-53
2021/06/04 09:48:29;;;;;;;12.03;4.77;;;19.30;99.90;;;;;;5017288;28;20421;-54
2021/06/04 09:51:21;;;;;;;7.40;4.60;;;19.40;99.90;;;;;;5022097;28;20425;-53
2021/06/04 09:53:46;;;;;;;13.90;4.50;;;19.40;99.90;;;;;;5035042;28;20469;-53
2021/06/04 09:56:33;;;;;;;7.43;4.53;;;19.40;99.90;;;;;;5033181;28;20504;-53
2021/06/04 09:59:03;;;;;;;13.40;5.73;;;19.50;99.90;;;;;;5030247;28;20415;-55
2021/06/04 10:01:31;;;;;;;7.13;4.63;;;19.50;99.90;;;;;;5031310;28;20518;-55
2021/06/04 10:04:05;;;;;;;6.10;4.30;;;19.50;99.90;;;;;;5033277;28;20528;-54
2021/06/04 10:06:40;;;;;;;6.87;5.33;;;19.50;99.80;;;;;;5032674;28;20460;-52
2021/06/04 10:09:11;;;;;;;5.87;4.73;;;19.40;99.00;;;;;;5035192;28;20423;-53
2021/06/04 10:11:40;;;;;;;10.03;5.17;;;19.40;98.20;;;;;;5026165;28;21866;-53
2021/06/04 10:14:24;;;;;;;5.27;4.77;;;19.30;98.50;;;;;;5031920;28;20422;-54
2021/06/04 10:19:22;;;;;;;4.70;4.17;;;19.20;98.30;;;;;;5030463;28;20434;-53
2021/06/04 10:21:51;;;;;;;12.30;4.50;;;19.20;98.50;;;;;;5034991;28;20429;-55
2021/06/04 10:24:35;;;;;;;11.47;5.27;;;19.20;98.70;;;;;;5036976;28;20457;-54
2021/06/04 10:27:09;;;;;;;7.87;4.90;;;19.10;98.80;;;;;;5022097;28;20880;-51
2021/06/04 10:29:35;;;;;;;7.93;5.00;;;19.10;99.30;;;;;;5025855;28;20422;-52
2021/06/04 10:32:17;;;;;;;6.70;4.30;;;19.10;99.20;;;;;;5031466;28;20962;-53
2021/06/04 10:35:01;;;;;;;7.30;4.50;;;19.10;99.40;;;;;;5032532;28;20987;-52
2021/06/04 10:37:44;;;;;;;9.37;4.63;;;19.10;99.60;;;;;;5033616;28;21070;-52
2021/06/04 10:40:29;;;;;;;12.27;4.97;;;19.10;99.30;;;;;;5035257;28;20430;-52
2021/06/04 10:43:23;;;;;;;10.83;5.50;;;19.10;98.90;;;;;;5023942;28;20524;-50
2021/06/04 10:46:13;;;;;;;8.70;4.60;;;19.10;99.10;;;;;;5004677;28;20452;-51
2021/06/04 10:49:02;;;;;;;9.97;4.53;;;19.10;99.60;;;;;;5034339;28;21197;-52
2021/06/04 10:51:48;;;;;;;9.57;4.70;;;19.10;99.60;;;;;;5033951;28;20425;-54
2021/06/04 10:54:19;;;;;;;7.33;4.87;;;19.20;99.20;;;;;;5032510;28;20430;-53
2021/06/04 10:57:04;;;;;;;8.20;4.93;;;19.20;98.90;;;;;;5035105;28;20476;-53
2021/06/04 10:59:48;;;;;;;8.20;4.80;;;19.20;99.20;;;;;;5040685;28;20441;-54
2021/06/04 11:02:29;;;;;;;7.23;4.70;;;19.20;99.60;;;;;;5022653;28;20758;-55
2021/06/04 11:05:32;;;;;;;8.53;4.47;;;19.20;99.60;;;;;;5041703;28;21348;-54
2021/06/04 11:08:06;;;;;;;6.07;4.63;;;19.30;99.80;;;;;;5041053;28;20954;-54
2021/06/04 11:11:04;;;;;;;10.93;4.40;;;19.30;99.70;;;;;;5039171;28;20964;-55
2021/06/04 11:13:39;;;;;;;8.90;4.93;;;19.30;99.90;;;;;;5032396;28;20544;-53
2021/06/04 11:16:18;;;;;;;8.30;4.50;;;19.50;99.80;;;;;;5021991;28;20923;-55
2021/06/04 11:18:50;;;;;;;5.80;4.87;;;19.60;99.90;;;;;;5039976;28;20836;-53
2021/06/04 11:21:16;;;;;;;10.00;4.67;;;19.70;99.40;;;;;;5016729;28;20955;-54
2021/06/04 11:23:44;;;;;;;6.33;3.80;;;19.90;98.50;;;;;;5034995;28;20476;-55
2021/06/04 11:26:39;;;;;;;5.57;4.07;;;20.10;98.20;;;;;;5036464;28;20222;-54
2021/06/04 11:29:33;;;;;;;9.07;4.60;;;20.40;98.10;;;;;;5040725;28;20476;-54
2021/06/04 11:32:39;;;;;;;5.37;4.27;;;20.80;96.60;;;;;;5037742;28;20401;-55
2021/06/04 11:35:16;;;;;;;8.17;4.20;;;21.10;93.10;;;;;;4985156;28;20795;-56
2021/06/04 11:37:50;;;;;;;13.90;4.50;;;21.50;93.20;;;;;;5033783;28;20449;-55
2021/06/04 11:40:19;;;;;;;12.53;4.57;;;21.80;90.30;;;;;;5036747;28;20702;-56
2021/06/04 11:42:54;;;;;;;6.90;4.33;;;22.10;89.50;;;;;;5039191;28;20495;-56
2021/06/04 11:45:24;;;;;;;6.00;3.50;;;22.50;83.90;;;;;;5020224;28;20478;-57
2021/06/04 11:47:50;;;;;;;5.53;4.00;;;22.80;81.40;;;;;;5036868;28;20514;-55
2021/06/04 11:50:30;;;;;;;4.23;3.43;;;23.10;78.00;;;;;;5021539;28;20418;-56
2021/06/04 11:53:20;;;;;;;5.30;3.60;;;23.50;74.40;;;;;;5043481;28;20526;-57
2021/06/04 11:55:45;;;;;;;6.70;4.00;;;23.60;70.00;;;;;;4990803;28;20433;-57
2021/06/04 11:58:29;;;;;;;5.27;3.80;;;23.60;69.70;;;;;;5046721;28;20545;-56
2021/06/04 12:01:13;;;;;;;4.93;3.73;;;23.70;69.40;;;;;;5019492;28;20207;-57
2021/06/04 12:03:47;;;;;;;4.43;3.43;;;23.80;64.40;;;;;;5039120;28;20565;-57
2021/06/04 12:06:27;;;;;;;5.00;3.90;;;24.00;65.80;;;;;;5034773;28;20602;-57
2021/06/04 12:08:56;;;;;;;8.73;3.60;;;24.20;64.70;;;;;;5040881;28;20460;-58
2021/06/04 12:11:21;;;;;;;5.10;3.70;;;24.50;63.10;;;;;;5042106;28;20430;-57
2021/06/04 12:13:51;;;;;;;4.43;3.93;;;24.60;60.40;;;;;;5037670;28;20438;-60
2021/06/04 12:16:26;;;;;;;6.30;4.20;;;24.70;60.30;;;;;;5042501;28;20245;-59
2021/06/04 12:18:59;;;;;;;4.20;3.67;;;24.70;60.70;;;;;;5028883;28;20764;-58
2021/06/04 12:21:45;;;;;;;6.20;4.20;;;24.70;59.40;;;;;;5046197;28;20429;-58
2021/06/04 12:24:34;;;;;;;4.13;3.73;;;24.70;59.30;;;;;;5039871;28;20499;-55
2021/06/04 12:27:12;;;;;;;7.80;3.50;;;24.70;58.80;;;;;;5039497;28;20485;-56
2021/06/04 12:29:45;;;;;;;5.53;3.80;;;24.80;58.60;;;;;;5040067;28;20899;-56
2021/06/04 12:32:38;;;;;;;4.80;3.93;;;24.90;58.90;;;;;;5047122;28;20430;-57
2021/06/04 12:35:06;;;;;;;5.63;3.90;;;25.10;59.20;;;;;;5046493;28;20460;-56
2021/06/04 12:37:37;;;;;;;12.17;4.27;;;25.20;56.00;;;;;;5032246;28;20446;-60
2021/06/04 12:40:31;;;;;;;5.93;3.60;;;25.20;55.50;;;;;;5031929;28;20429;-58
2021/06/04 12:43:15;;;;;;;6.40;4.30;;;25.30;56.40;;;;;;5028352;28;20954;-57
2021/06/04 12:45:55;;;;;;;7.23;4.27;;;25.70;55.60;;;;;;5045892;28;20534;-57
2021/06/04 12:48:30;;;;;;;9.10;3.93;;;26.00;55.40;;;;;;5017822;28;20907;-57
2021/06/04 12:50:55;;;;;;;8.40;4.20;;;26.40;53.30;;;;;;5035123;28;20569;-56
2021/06/04 12:53:34;;;;;;;5.40;3.67;;;26.60;52.60;;;;;;5041018;28;20445;-57
2021/06/04 12:55:59;;;;;;;5.83;4.63;;;26.80;51.90;;;;;;5037101;28;20522;-57
2021/06/04 12:58:33;;;;;;;4.73;3.73;;;26.90;50.80;;;;;;5040810;28;20527;-56
2021/06/04 13:01:10;;;;;;;5.33;4.50;;;27.10;51.70;;;;;;5016904;28;20269;-58
2021/06/04 13:03:58;;;;;;;8.23;3.90;;;27.60;52.10;;;;;;5037735;28;20531;-56
2021/06/04 13:06:33;;;;;;;11.03;3.80;;;28.10;50.90;;;;;;5045158;28;20522;-56
2021/06/04 13:08:59;;;;;;;5.80;4.27;;;28.20;48.90;;;;;;5039534;28;20444;-58
2021/06/04 13:11:46;;;;;;;9.93;3.70;;;28.00;49.80;;;;;;5046862;28;20413;-56
2021/06/04 13:14:27;;;;;;;4.20;3.63;;;27.90;50.60;;;;;;5047518;28;20170;-55
2021/06/04 13:16:55;;;;;;;9.50;4.10;;;27.70;49.50;;;;;;5042232;28;20456;-57
2021/06/04 13:19:26;;;;;;;7.17;3.90;;;27.40;49.70;;;;;;5040091;28;20600;-55